This is the latest recevied weather packets stored in our database for station/object G4CVN. If no packets are shown the sender has not sent any weather packets the latest 10 day(s).
| Time | Temp. | Humidity | Pressure | Rain* | Wind** | Luminosity | Snow |
|---|---|---|---|---|---|---|---|
| 1777596916 | 12.78° C | 59% | 1024.4 hPa | 0 mm | - | 0 W/m² | - |
| 1777594516 | 12.78° C | 61% | 1024.5 hPa | 0 mm | - | 0 W/m² | - |
| 1777593916 | 12.78° C | 61% | 1024.5 hPa | 0 mm | - | 0 W/m² | - |
| 1777593316 | 12.78° C | 62% | 1024.5 hPa | 0 mm | - | 0 W/m² | - |
| 1777589716 | 9.44° C | 75% | 1024.4 hPa | 0 mm | - | 0 W/m² | - |
| 1777588516 | 9.44° C | 73% | 1024.4 hPa | 0 mm | - | 0 W/m² | - |
| 1777586116 | 11.11° C | 68% | 1024.4 hPa | 0 mm | - | 0 W/m² | - |
| 1777584336 | 12.78° C | 62% | 1024.3 hPa | 0 mm | - | 0 W/m² | - |
| 1777583116 | 12.78° C | 62% | 1024.2 hPa | 0 mm | - | 0 W/m² | - |
| 1777581316 | 13.89° C | 56% | 1024.3 hPa | 0 mm | - | 0 W/m² | - |
| 1777580136 | 14.44° C | 52% | 1024.2 hPa | 0 mm | - | 0 W/m² | - |
| 1777578316 | 16.67° C | 45% | 1024.1 hPa | 0 mm | - | 0 W/m² | - |
| 1777575916 | 18.33° C | 40% | 1023.8 hPa | 0 mm | - | 8 W/m² | - |
| 1777572316 | 20.56° C | 35% | 1023.6 hPa | 0 mm | - | 26 W/m² | - |
| 1777571716 | 21.11° C | 33% | 1023.5 hPa | 0 mm | - | 30 W/m² | - |
| 1777569316 | 20.56° C | 33% | 1023.4 hPa | 0 mm | - | 44 W/m² | - |
| 1777568116 | 21.67° C | 32% | 1023.5 hPa | 0 mm | - | 48 W/m² | - |
| 1777567516 | 22.22° C | 31% | 1023.4 hPa | 0 mm | - | 394 W/m² | - |
| 1777559116 | 23.89° C | 31% | 1024 hPa | 0 mm | - | 735 W/m² | - |
| 1777553116 | 22.78° C | 36% | 1024.5 hPa | 0 mm | - | 822 W/m² | - |
| 1777547716 | 21.67° C | 39% | 1025.3 hPa | 0 mm | - | 801 W/m² | - |
| 1777545956 | 20° C | 41% | 1025.4 hPa | 0 mm | - | 772 W/m² | - |
| 1777543516 | 19.44° C | 44% | 1025.7 hPa | 0 mm | - | 713 W/m² | - |
| 1777542316 | 18.89° C | 44% | 1025.6 hPa | 0 mm | - | 676 W/m² | - |
| 1777540516 | 17.78° C | 47% | 1025.5 hPa | 0 mm | - | 616 W/m² | - |
* Rain latest hour (hover to see other rain measurements)
** Current wind speed in m/s (hover to see current wind gust speed)